Time;durP1;ratioP1;P1;durP2;ratioP2;P2;SDS_P1;SDS_P2;PMS_P1;PMS_P2;Temp;Humidity;BMP_temperature;BMP_pressure;BME280_temperature;BME280_humidity;BME280_pressure;Samples;Min_cycle;Max_cycle;Signal;HPM_P1;HPM_P2
2022/01/05 00:01:17;;;;;;;3.42;0.90;;;22.10;42.90;;;;;;5075363;28;20086;-57
2022/01/05 00:03:43;;;;;;;2.97;0.93;;;22.00;42.60;;;;;;5073205;28;20037;-57
2022/01/05 00:06:09;;;;;;;5.35;1.33;;;22.00;43.10;;;;;;5074410;28;20427;-57
2022/01/05 00:08:34;;;;;;;2.92;1.13;;;22.00;42.50;;;;;;5074685;28;20090;-57
2022/01/05 00:11:00;;;;;;;3.20;1.10;;;22.00;42.60;;;;;;5057730;28;20385;-57
2022/01/05 00:13:25;;;;;;;2.53;1.02;;;22.00;42.70;;;;;;5073479;28;20048;-57
2022/01/05 00:15:51;;;;;;;2.50;1.00;;;21.90;42.60;;;;;;5074478;28;20052;-57
2022/01/05 00:18:16;;;;;;;4.10;1.20;;;21.90;42.50;;;;;;5074513;28;20119;-57
2022/01/05 00:20:43;;;;;;;4.68;1.13;;;21.90;42.50;;;;;;5074629;28;20052;-57
2022/01/05 00:23:09;;;;;;;3.58;1.08;;;21.90;42.30;;;;;;5073618;28;20091;-57
2022/01/05 00:25:35;;;;;;;2.58;0.98;;;21.90;42.40;;;;;;5074335;28;20044;-57
2022/01/05 00:28:00;;;;;;;2.88;1.23;;;21.90;42.40;;;;;;5074418;28;20040;-57
2022/01/05 00:30:26;;;;;;;6.32;1.33;;;21.90;42.40;;;;;;5074174;28;20059;-57
2022/01/05 00:32:52;;;;;;;2.97;0.93;;;21.80;42.30;;;;;;5074291;28;20040;-57
2022/01/05 00:35:17;;;;;;;2.80;1.08;;;21.80;42.30;;;;;;5074191;28;20070;-57
2022/01/05 00:37:43;;;;;;;3.33;1.00;;;21.80;42.20;;;;;;5074086;28;20534;-57
2022/01/05 00:40:09;;;;;;;3.53;1.08;;;21.80;42.20;;;;;;5072852;28;20108;-57
2022/01/05 00:42:35;;;;;;;1.33;0.90;;;21.80;42.30;;;;;;5074058;28;20545;-57
2022/01/05 00:45:00;;;;;;;2.10;0.88;;;21.80;42.30;;;;;;5073939;28;20044;-57
2022/01/05 00:47:26;;;;;;;2.63;1.27;;;21.80;42.20;;;;;;5073932;28;20040;-57
2022/01/05 00:49:52;;;;;;;5.13;1.20;;;21.70;42.20;;;;;;5074404;28;20040;-57
2022/01/05 00:52:18;;;;;;;1.63;0.80;;;21.70;42.30;;;;;;5073851;28;20029;-57
2022/01/05 00:54:45;;;;;;;2.00;0.80;;;21.70;42.20;;;;;;5074316;28;20510;-57
2022/01/05 00:57:11;;;;;;;3.47;1.25;;;21.70;42.80;;;;;;5073709;28;20040;-57
2022/01/05 00:59:37;;;;;;;2.15;0.88;;;21.70;42.00;;;;;;5072932;28;20071;-58
2022/01/05 01:02:02;;;;;;;4.38;1.00;;;21.70;41.90;;;;;;5073599;28;20456;-57
2022/01/05 01:04:28;;;;;;;2.33;1.00;;;21.70;41.90;;;;;;5074186;28;20079;-57
2022/01/05 01:06:54;;;;;;;2.13;0.90;;;21.60;42.00;;;;;;5073591;28;20036;-56
2022/01/05 01:09:19;;;;;;;2.85;0.88;;;21.60;41.80;;;;;;5074034;28;20047;-56
2022/01/05 01:11:45;;;;;;;2.08;0.80;;;21.60;41.90;;;;;;5073522;28;20077;-56
2022/01/05 01:14:10;;;;;;;2.75;0.85;;;21.60;41.80;;;;;;5073723;28;20044;-56
2022/01/05 01:16:36;;;;;;;1.80;0.88;;;21.60;41.90;;;;;;5073995;28;20348;-56
2022/01/05 01:19:02;;;;;;;5.07;1.40;;;21.60;41.80;;;;;;5073438;28;20162;-57
2022/01/05 01:21:28;;;;;;;2.60;0.80;;;21.60;41.70;;;;;;5073600;28;20055;-56
2022/01/05 01:23:56;;;;;;;3.10;0.90;;;21.60;41.70;;;;;;5073450;28;20048;-57
2022/01/05 01:26:27;;;;;;;2.78;0.90;;;21.50;41.70;;;;;;5073482;28;20059;-56
2022/01/05 01:28:53;;;;;;;;;;;21.50;41.60;;;;;;5073846;28;20028;-57
2022/01/05 01:31:19;;;;;;;4.78;0.93;;;21.50;41.50;;;;;;5073816;28;19916;-57
2022/01/05 01:33:45;;;;;;;1.55;0.75;;;21.50;42.00;;;;;;5073192;28;20495;-57
2022/01/05 01:36:11;;;;;;;3.13;1.10;;;21.50;42.00;;;;;;5073229;28;20032;-56
2022/01/05 01:38:37;;;;;;;1.73;0.95;;;21.50;42.00;;;;;;5073198;28;20039;-56
2022/01/05 01:41:03;;;;;;;3.05;1.00;;;21.50;42.00;;;;;;5073252;28;20438;-56
2022/01/05 01:43:29;;;;;;;3.60;1.20;;;21.50;42.10;;;;;;5073586;28;20079;-56
2022/01/05 01:45:55;;;;;;;2.55;0.88;;;21.50;42.30;;;;;;5073217;28;20040;-56
2022/01/05 01:48:20;;;;;;;2.70;1.25;;;21.40;42.90;;;;;;5073602;28;20368;-56
2022/01/05 01:50:46;;;;;;;2.55;0.90;;;21.40;42.30;;;;;;5073092;28;20040;-57
2022/01/05 01:53:12;;;;;;;2.20;0.90;;;21.40;42.20;;;;;;5073072;28;20037;-56
2022/01/05 01:55:38;;;;;;;2.45;0.95;;;21.40;42.10;;;;;;5073035;28;20134;-56
2022/01/05 01:58:05;;;;;;;2.60;1.00;;;21.40;42.20;;;;;;5073032;28;20040;-57
2022/01/05 02:00:31;;;;;;;2.63;1.00;;;21.40;42.20;;;;;;5073031;28;20056;-57
2022/01/05 02:02:57;;;;;;;3.10;1.10;;;21.40;42.20;;;;;;5073009;28;20033;-57
2022/01/05 02:05:22;;;;;;;2.35;1.13;;;21.40;42.20;;;;;;5071777;28;20360;-56
2022/01/05 02:07:48;;;;;;;1.95;0.80;;;21.40;42.20;;;;;;5072975;28;20094;-57
2022/01/05 02:10:16;;;;;;;2.15;0.90;;;21.40;42.20;;;;;;5073242;28;20045;-57
2022/01/05 02:12:42;;;;;;;3.17;0.93;;;21.40;42.20;;;;;;5076891;28;20123;-57
2022/01/05 02:15:08;;;;;;;4.78;1.13;;;21.30;42.10;;;;;;5076739;28;20041;-57
2022/01/05 02:17:47;;;;;;;3.63;1.30;;;21.30;42.10;;;;;;5077004;28;20055;-56
2022/01/05 02:20:16;;;;;;;2.17;1.00;;;21.30;42.10;;;;;;5076772;28;20056;-57
2022/01/05 02:22:42;;;;;;;4.35;1.10;;;21.30;42.00;;;;;;5076655;28;20040;-57
2022/01/05 02:25:08;;;;;;;3.28;1.23;;;21.30;42.10;;;;;;5076635;28;20066;-57
2022/01/05 02:27:33;;;;;;;3.90;1.45;;;21.30;42.10;;;;;;5076604;28;20041;-57
2022/01/05 02:29:59;;;;;;;6.28;1.25;;;21.30;42.10;;;;;;5077065;28;20048;-57
2022/01/05 02:32:24;;;;;;;3.50;1.40;;;21.30;42.10;;;;;;5076514;28;20044;-57
2022/01/05 02:34:50;;;;;;;5.00;1.40;;;21.20;42.00;;;;;;5076956;28;20044;-57
2022/01/05 02:37:15;;;;;;;3.55;1.00;;;21.20;41.90;;;;;;5076464;28;20280;-57
2022/01/05 02:39:41;;;;;;;3.60;1.20;;;21.20;42.00;;;;;;5076388;28;20042;-57
2022/01/05 02:42:07;;;;;;;4.97;1.20;;;21.20;42.00;;;;;;5076256;28;20080;-56
2022/01/05 02:44:32;;;;;;;2.88;1.00;;;21.20;42.00;;;;;;5076239;28;20047;-57
2022/01/05 02:46:58;;;;;;;3.83;1.15;;;21.20;41.90;;;;;;5075058;28;20036;-57
2022/01/05 02:49:23;;;;;;;6.75;1.65;;;21.20;41.80;;;;;;5076224;28;20040;-56
2022/01/05 02:51:49;;;;;;;3.80;1.08;;;21.20;41.80;;;;;;5076117;28;20045;-57
2022/01/05 02:54:14;;;;;;;3.65;0.90;;;21.20;41.80;;;;;;5076093;28;20036;-57
2022/01/05 02:56:40;;;;;;;5.35;1.40;;;21.20;41.80;;;;;;5075988;28;20044;-57
2022/01/05 02:59:06;;;;;;;5.63;1.55;;;21.10;41.80;;;;;;5075993;28;20070;-57
2022/01/05 03:01:33;;;;;;;6.85;1.35;;;21.10;41.80;;;;;;5075668;28;20032;-57
2022/01/05 03:03:58;;;;;;;5.80;1.23;;;21.20;41.70;;;;;;5075973;28;20047;-57
2022/01/05 03:06:24;;;;;;;3.28;1.40;;;21.10;41.70;;;;;;5075825;28;20036;-57
2022/01/05 03:08:50;;;;;;;4.75;1.33;;;21.10;41.60;;;;;;5075911;28;20037;-57
2022/01/05 03:11:16;;;;;;;6.13;1.10;;;21.10;41.70;;;;;;5075830;28;20052;-57
2022/01/05 03:13:43;;;;;;;2.88;1.20;;;21.10;41.60;;;;;;5076055;28;20082;-57
2022/01/05 03:16:08;;;;;;;3.53;1.30;;;21.10;41.50;;;;;;5075677;28;20055;-57
2022/01/05 03:18:34;;;;;;;5.22;1.13;;;21.10;41.40;;;;;;5075639;28;20044;-57
2022/01/05 03:20:59;;;;;;;5.22;1.23;;;21.10;41.40;;;;;;5075913;28;20087;-57
2022/01/05 03:23:25;;;;;;;3.92;1.40;;;21.00;41.30;;;;;;5074585;28;20044;-57
2022/01/05 03:25:50;;;;;;;4.40;1.38;;;21.00;41.20;;;;;;5075003;28;20075;-57
2022/01/05 03:28:16;;;;;;;2.83;1.10;;;21.00;41.20;;;;;;5075735;28;20048;-57
2022/01/05 03:30:42;;;;;;;3.85;1.20;;;21.00;41.10;;;;;;5075343;28;20466;-57
2022/01/05 03:33:19;;;;;;;2.88;1.15;;;21.00;41.00;;;;;;5075425;28;20046;-57
2022/01/05 03:35:46;;;;;;;3.53;0.90;;;21.00;41.00;;;;;;5075155;28;20559;-57
2022/01/05 03:38:15;;;;;;;3.97;1.08;;;20.90;40.90;;;;;;5075329;28;20068;-57
2022/01/05 03:40:41;;;;;;;5.53;1.27;;;20.90;40.80;;;;;;5075227;28;20040;-57
2022/01/05 03:43:08;;;;;;;4.40;1.10;;;20.90;40.80;;;;;;5075131;28;20079;-57
2022/01/05 03:45:35;;;;;;;5.30;1.30;;;20.90;40.90;;;;;;5075641;28;20047;-57
2022/01/05 03:48:02;;;;;;;4.53;1.25;;;20.90;40.80;;;;;;5075170;28;20124;-57
2022/01/05 03:50:27;;;;;;;3.55;1.13;;;20.90;40.80;;;;;;5075072;28;20475;-57
2022/01/05 03:52:53;;;;;;;5.22;1.35;;;20.90;40.70;;;;;;5074970;28;20032;-57
2022/01/05 03:55:18;;;;;;;5.28;1.17;;;20.90;40.70;;;;;;5075501;28;20122;-57
2022/01/05 03:57:44;;;;;;;5.72;1.40;;;20.90;40.70;;;;;;5074909;28;20040;-57
2022/01/05 04:00:10;;;;;;;3.58;1.05;;;20.90;40.70;;;;;;5074887;28;20044;-57
2022/01/05 04:02:36;;;;;;;3.78;1.25;;;20.90;40.70;;;;;;5074728;28;20036;-57
2022/01/05 04:05:01;;;;;;;5.13;1.17;;;20.80;40.50;;;;;;5075047;28;20040;-57
2022/01/05 04:07:27;;;;;;;3.25;1.23;;;20.90;40.60;;;;;;5075471;28;20047;-57
2022/01/05 04:09:52;;;;;;;3.83;1.27;;;20.80;40.40;;;;;;5074713;28;20063;-57
2022/01/05 04:12:18;;;;;;;3.28;1.55;;;20.80;40.50;;;;;;5073898;28;20141;-57
2022/01/05 04:14:43;;;;;;;2.72;0.95;;;20.80;40.50;;;;;;5074640;28;20046;-57
2022/01/05 04:17:09;;;;;;;3.88;1.63;;;20.80;40.50;;;;;;5074561;28;20058;-57
2022/01/05 04:19:35;;;;;;;3.45;1.33;;;20.80;40.50;;;;;;5074435;28;20071;-57
2022/01/05 04:22:01;;;;;;;3.15;1.42;;;20.80;40.50;;;;;;5073412;28;20048;-57
2022/01/05 04:24:27;;;;;;;3.65;1.17;;;20.80;40.50;;;;;;5074835;28;20123;-57
2022/01/05 04:26:52;;;;;;;4.28;1.38;;;20.80;40.50;;;;;;5074309;28;20080;-57
2022/01/05 04:29:18;;;;;;;3.78;1.20;;;20.80;40.50;;;;;;5074316;28;20032;-57
2022/01/05 04:31:45;;;;;;;2.65;1.33;;;20.70;40.50;;;;;;5074216;28;20142;-57
2022/01/05 04:34:11;;;;;;;2.72;1.38;;;20.70;40.40;;;;;;5074086;28;20541;-57
2022/01/05 04:36:37;;;;;;;3.30;1.30;;;20.70;40.50;;;;;;5074104;28;20052;-57
2022/01/05 04:39:02;;;;;;;4.03;1.20;;;20.70;40.50;;;;;;5074135;28;20104;-57
2022/01/05 04:41:28;;;;;;;4.13;1.40;;;20.70;40.40;;;;;;5074538;28;20036;-57
2022/01/05 04:43:54;;;;;;;4.07;1.40;;;20.70;40.30;;;;;;5073375;28;20134;-57
2022/01/05 04:46:19;;;;;;;3.88;1.50;;;20.70;40.40;;;;;;5074734;28;20147;-57
2022/01/05 04:48:45;;;;;;;4.05;1.52;;;20.70;40.40;;;;;;5073871;28;20051;-57
2022/01/05 04:51:10;;;;;;;2.67;1.15;;;20.70;40.40;;;;;;5073903;28;20048;-57
2022/01/05 04:53:36;;;;;;;5.32;1.67;;;20.60;40.40;;;;;;5073034;28;20517;-57
2022/01/05 04:56:01;;;;;;;2.92;1.10;;;20.70;40.40;;;;;;5074272;28;20529;-57
2022/01/05 04:58:27;;;;;;;3.45;1.38;;;20.60;40.40;;;;;;5073658;28;20127;-57
2022/01/05 05:00:53;;;;;;;5.03;1.60;;;20.60;40.40;;;;;;5073622;28;20036;-57
2022/01/05 05:03:19;;;;;;;4.43;1.27;;;20.60;40.40;;;;;;5073304;28;20109;-57
2022/01/05 05:05:44;;;;;;;4.05;1.33;;;20.60;40.30;;;;;;5074141;28;20127;-57
2022/01/05 05:08:10;;;;;;;2.78;1.20;;;20.60;40.30;;;;;;5074038;28;20042;-57
2022/01/05 05:10:35;;;;;;;4.90;1.58;;;20.60;40.30;;;;;;5073528;28;20044;-57
2022/01/05 05:13:09;;;;;;;4.88;1.58;;;20.60;40.30;;;;;;5074047;28;20032;-57
2022/01/05 05:15:34;;;;;;;4.10;1.45;;;20.60;40.20;;;;;;5073411;28;20533;-57
2022/01/05 05:18:00;;;;;;;4.18;1.33;;;20.60;40.40;;;;;;5073482;28;20036;-57
2022/01/05 05:20:25;;;;;;;3.03;1.48;;;20.60;40.40;;;;;;5073288;28;20048;-57
2022/01/05 05:22:51;;;;;;;3.40;1.42;;;20.60;40.30;;;;;;5073764;28;20048;-57
2022/01/05 05:25:17;;;;;;;5.13;1.75;;;20.60;40.30;;;;;;5073275;28;20123;-57
2022/01/05 05:27:42;;;;;;;3.67;1.42;;;20.50;40.40;;;;;;5073821;28;20079;-57
2022/01/05 05:30:08;;;;;;;5.05;1.48;;;20.60;40.60;;;;;;5073312;28;20041;-57
2022/01/05 05:32:34;;;;;;;7.22;1.63;;;20.50;40.70;;;;;;5073318;28;20040;-57
2022/01/05 05:34:59;;;;;;;4.82;2.10;;;20.60;41.00;;;;;;5073291;28;20036;-57
2022/01/05 05:37:25;;;;;;;3.40;1.30;;;20.60;41.00;;;;;;5072941;28;20028;-57
2022/01/05 05:39:50;;;;;;;2.72;1.15;;;20.60;41.90;;;;;;5073188;28;20125;-57
2022/01/05 05:42:16;;;;;;;5.47;2.00;;;20.60;41.30;;;;;;5073569;28;20127;-57
2022/01/05 05:44:41;;;;;;;8.90;1.75;;;20.60;41.30;;;;;;5073715;28;20431;-57
2022/01/05 05:47:07;;;;;;;3.78;1.40;;;20.50;41.20;;;;;;5072614;28;20371;-57
2022/01/05 05:49:33;;;;;;;7.40;1.98;;;20.50;41.20;;;;;;5073517;28;20040;-56
2022/01/05 05:51:59;;;;;;;4.78;1.10;;;20.50;41.30;;;;;;5073051;28;20039;-57
2022/01/05 05:54:24;;;;;;;3.72;1.33;;;20.50;41.30;;;;;;5072848;28;20079;-57
2022/01/05 05:56:50;;;;;;;5.15;1.20;;;20.50;41.20;;;;;;5072721;28;20043;-57
2022/01/05 05:59:15;;;;;;;4.57;1.40;;;20.50;41.30;;;;;;5073140;28;20201;-56
2022/01/05 06:01:41;;;;;;;4.47;2.00;;;20.50;41.20;;;;;;5073420;28;20511;-57
2022/01/05 06:04:07;;;;;;;4.22;1.63;;;20.50;41.30;;;;;;5072996;28;20048;-57
2022/01/05 06:06:32;;;;;;;2.83;1.13;;;20.50;41.40;;;;;;5072943;28;20455;-57
2022/01/05 06:08:58;;;;;;;4.85;1.60;;;20.50;41.30;;;;;;5072859;28;20040;-57
2022/01/05 06:11:23;;;;;;;4.50;1.58;;;20.50;41.30;;;;;;5072850;28;20452;-57
2022/01/05 06:13:50;;;;;;;7.50;1.02;;;20.50;41.30;;;;;;5072783;28;20424;-56
2022/01/05 06:16:16;;;;;;;3.10;1.30;;;20.50;41.40;;;;;;5073409;28;20063;-56
2022/01/05 06:18:42;;;;;;;4.50;1.38;;;20.50;41.40;;;;;;5072635;28;20353;-56
2022/01/05 06:21:07;;;;;;;3.70;1.10;;;20.50;41.40;;;;;;5073548;28;20074;-57
2022/01/05 06:23:33;;;;;;;3.22;1.15;;;20.50;41.50;;;;;;5071476;28;20049;-56
2022/01/05 06:25:58;;;;;;;3.83;0.93;;;20.50;41.70;;;;;;5072764;28;20052;-56
2022/01/05 06:28:24;;;;;;;3.67;1.38;;;20.50;41.60;;;;;;5071763;28;20109;-57
2022/01/05 06:30:49;;;;;;;3.55;1.55;;;20.50;41.60;;;;;;5072947;28;20044;-56
2022/01/05 06:33:15;;;;;;;4.03;1.30;;;20.50;41.70;;;;;;5072499;28;20464;-56
2022/01/05 06:35:41;;;;;;;3.75;1.27;;;20.50;41.80;;;;;;5072517;28;20040;-56
2022/01/05 06:38:06;;;;;;;3.30;1.55;;;20.50;41.80;;;;;;5072506;28;20048;-56
2022/01/05 06:40:32;;;;;;;3.63;1.42;;;20.50;41.90;;;;;;5072437;28;20048;-55
2022/01/05 06:42:59;;;;;;;4.88;1.55;;;20.50;42.10;;;;;;5072191;28;20101;-56
2022/01/05 06:45:24;;;;;;;6.65;1.40;;;20.50;42.00;;;;;;5072327;28;20055;-56
2022/01/05 06:47:50;;;;;;;4.55;1.50;;;20.50;42.20;;;;;;5072282;28;20044;-56
2022/01/05 06:50:16;;;;;;;6.18;1.33;;;20.50;42.20;;;;;;5072247;28;20109;-56
2022/01/05 06:52:42;;;;;;;4.30;1.60;;;20.50;42.20;;;;;;5072529;28;20129;-56
2022/01/05 06:55:09;;;;;;;3.80;1.15;;;20.60;42.50;;;;;;5072242;28;20372;-56
2022/01/05 06:57:36;;;;;;;3.85;1.27;;;20.50;42.40;;;;;;5072905;28;20033;-56
2022/01/05 07:00:04;;;;;;;4.72;1.50;;;20.60;42.40;;;;;;5075774;28;20103;-56
2022/01/05 07:02:29;;;;;;;4.38;1.40;;;20.50;42.30;;;;;;5076262;28;20047;-56
2022/01/05 07:04:55;;;;;;;5.25;1.23;;;20.60;42.40;;;;;;5076205;28;20368;-56
2022/01/05 07:07:20;;;;;;;3.58;1.50;;;20.60;42.40;;;;;;5075833;28;20460;-56
2022/01/05 07:09:46;;;;;;;5.75;1.20;;;20.60;42.50;;;;;;5075860;28;20102;-56
2022/01/05 07:12:11;;;;;;;2.83;1.15;;;20.60;42.70;;;;;;5075864;28;20048;-56
2022/01/05 07:14:37;;;;;;;4.63;1.40;;;20.60;42.70;;;;;;5075959;28;20044;-56
2022/01/05 07:17:03;;;;;;;2.25;1.15;;;20.60;42.60;;;;;;5075776;28;20051;-56
2022/01/05 07:19:28;;;;;;;3.17;1.20;;;20.60;42.60;;;;;;5076264;28;20041;-56
2022/01/05 07:21:54;;;;;;;2.72;1.13;;;20.60;42.70;;;;;;5075687;28;20056;-56
2022/01/05 07:24:19;;;;;;;3.65;1.42;;;20.60;42.70;;;;;;5075642;28;20410;-56
2022/01/05 07:26:46;;;;;;;3.63;1.63;;;20.60;42.70;;;;;;5075580;28;20123;-56
2022/01/05 07:29:19;;;;;;;3.03;1.30;;;20.70;42.70;;;;;;5075533;28;20173;-56
2022/01/05 07:31:44;;;;;;;3.40;1.27;;;20.70;42.70;;;;;;5075515;28;20044;-56
2022/01/05 07:34:10;;;;;;;2.92;1.33;;;20.70;42.70;;;;;;5075585;28;20380;-56
2022/01/05 07:36:36;;;;;;;3.70;1.15;;;20.70;42.70;;;;;;5075579;28;20124;-56
2022/01/05 07:39:04;;;;;;;2.90;1.45;;;20.70;42.60;;;;;;5075021;28;20067;-56
2022/01/05 07:41:31;;;;;;;4.30;1.38;;;20.70;42.60;;;;;;5075109;28;20475;-56
2022/01/05 07:43:56;;;;;;;2.60;1.30;;;20.70;42.60;;;;;;5075284;28;20032;-56
2022/01/05 07:46:22;;;;;;;5.38;1.30;;;20.70;42.50;;;;;;5075434;28;20078;-56
2022/01/05 07:48:47;;;;;;;4.68;1.58;;;20.70;42.50;;;;;;5075416;28;20044;-56
2022/01/05 07:51:13;;;;;;;4.80;1.25;;;20.70;42.50;;;;;;5075359;28;20032;-56
2022/01/05 07:53:39;;;;;;;5.03;1.40;;;20.70;42.50;;;;;;5075368;28;20398;-56
2022/01/05 07:56:05;;;;;;;4.07;1.60;;;20.70;42.50;;;;;;5075339;28;20052;-56
2022/01/05 07:58:30;;;;;;;3.17;1.25;;;20.70;42.40;;;;;;5075163;28;20040;-56
2022/01/05 08:00:56;;;;;;;2.95;1.20;;;20.70;42.30;;;;;;5074854;28;20040;-56
2022/01/05 08:03:21;;;;;;;3.15;1.48;;;20.70;42.30;;;;;;5074786;28;20032;-56
2022/01/05 08:05:50;;;;;;;2.95;1.10;;;20.80;42.30;;;;;;5074355;28;20127;-56
2022/01/05 08:08:16;;;;;;;5.07;1.48;;;20.70;42.20;;;;;;5074615;28;20040;-56
2022/01/05 08:10:41;;;;;;;6.25;1.48;;;20.80;42.30;;;;;;5074988;28;20040;-56
2022/01/05 08:13:07;;;;;;;4.97;1.35;;;20.70;42.20;;;;;;5074746;28;20032;-56
2022/01/05 08:15:32;;;;;;;4.28;1.48;;;20.80;42.40;;;;;;5074613;28;20040;-56
2022/01/05 08:17:58;;;;;;;3.58;1.30;;;20.70;42.30;;;;;;5074683;28;20048;-57
2022/01/05 08:20:23;;;;;;;3.00;1.30;;;20.70;42.40;;;;;;5074412;28;20060;-57
2022/01/05 08:22:49;;;;;;;4.53;1.23;;;20.70;42.50;;;;;;5074568;28;20459;-56
2022/01/05 08:25:17;;;;;;;2.97;1.45;;;20.70;42.50;;;;;;5074288;28;20357;-57
2022/01/05 08:27:47;;;;;;;3.83;1.25;;;20.70;42.60;;;;;;5074443;28;20032;-57
2022/01/05 08:30:22;;;;;;;6.07;1.50;;;20.70;42.70;;;;;;5074459;28;20040;-57
2022/01/05 08:32:48;;;;;;;3.58;1.40;;;20.70;42.60;;;;;;5074931;28;20128;-57
2022/01/05 08:35:15;;;;;;;3.28;1.30;;;20.70;42.70;;;;;;5074853;28;20036;-56
2022/01/05 08:37:44;;;;;;;5.97;1.38;;;20.70;42.70;;;;;;5074364;28;20134;-57
2022/01/05 08:40:15;;;;;;;4.00;1.08;;;20.70;42.70;;;;;;5073548;28;20509;-57
2022/01/05 08:42:40;;;;;;;3.33;1.35;;;20.70;42.70;;;;;;5074300;28;20040;-57
2022/01/05 08:45:07;;;;;;;3.30;1.30;;;20.70;42.60;;;;;;5074173;28;20094;-57
2022/01/05 08:47:33;;;;;;;2.40;1.33;;;20.70;42.50;;;;;;5074098;28;20040;-57
2022/01/05 08:49:59;;;;;;;3.97;1.20;;;20.70;42.60;;;;;;5074130;28;20414;-57
2022/01/05 08:52:24;;;;;;;3.67;1.23;;;20.70;42.50;;;;;;5074031;28;20044;-57
2022/01/05 08:54:50;;;;;;;3.83;1.35;;;20.70;42.60;;;;;;5072502;28;20048;-57
2022/01/05 08:57:16;;;;;;;4.63;1.38;;;20.70;42.50;;;;;;5073962;28;20044;-57
2022/01/05 08:59:43;;;;;;;7.72;1.30;;;20.70;42.50;;;;;;5073856;28;20044;-57
2022/01/05 09:02:09;;;;;;;4.70;1.30;;;20.70;42.60;;;;;;5073809;28;20040;-57
2022/01/05 09:04:35;;;;;;;3.75;1.20;;;20.70;42.60;;;;;;5074567;28;20067;-57
2022/01/05 09:07:01;;;;;;;5.07;1.30;;;20.70;42.70;;;;;;5073772;28;20395;-57
2022/01/05 09:09:26;;;;;;;3.53;1.30;;;20.70;42.70;;;;;;5074240;28;20040;-57
2022/01/05 09:11:52;;;;;;;2.17;1.30;;;20.80;42.80;;;;;;5072503;28;20078;-57
2022/01/05 09:14:18;;;;;;;4.18;1.30;;;20.80;43.00;;;;;;5074118;28;20041;-57
2022/01/05 09:16:44;;;;;;;4.45;1.35;;;20.80;43.10;;;;;;5073765;28;20055;-57
2022/01/05 09:19:10;;;;;;;5.90;1.42;;;20.80;43.20;;;;;;5073997;28;20371;-57
2022/01/05 09:21:36;;;;;;;4.53;1.52;;;20.80;43.20;;;;;;5073331;28;20072;-56
2022/01/05 09:24:03;;;;;;;3.03;1.20;;;20.80;43.30;;;;;;5073563;28;20124;-57
2022/01/05 09:26:28;;;;;;;5.18;1.27;;;20.80;43.30;;;;;;5073532;28;20044;-57
2022/01/05 09:28:54;;;;;;;3.50;1.23;;;20.80;43.40;;;;;;5073557;28;20074;-57
2022/01/05 09:31:20;;;;;;;3.28;1.23;;;20.80;43.60;;;;;;5073589;28;20379;-57
2022/01/05 09:33:45;;;;;;;2.90;1.00;;;20.90;43.60;;;;;;5072348;28;20033;-57
2022/01/05 09:36:19;;;;;;;4.70;1.08;;;20.90;43.70;;;;;;5073703;28;20068;-57
2022/01/05 09:44:03;;;;;;;3.10;1.10;;;20.90;43.90;;;;;;5073276;28;20047;-57
2022/01/05 09:46:43;;;;;;;3.65;1.23;;;20.90;43.90;;;;;;5073728;28;20067;-56
2022/01/05 09:49:21;;;;;;;3.13;1.23;;;20.90;43.90;;;;;;5073381;28;20037;-57
2022/01/05 09:51:52;;;;;;;3.88;1.30;;;20.90;44.00;;;;;;5073739;28;20051;-57
2022/01/05 09:54:18;;;;;;;4.20;1.23;;;20.90;44.10;;;;;;5073621;28;20045;-57
2022/01/05 09:56:43;;;;;;;3.92;1.00;;;20.90;44.20;;;;;;5072991;28;20049;-57
2022/01/05 09:59:09;;;;;;;4.30;1.05;;;21.00;44.30;;;;;;5073795;28;20032;-56
2022/01/05 10:01:37;;;;;;;3.92;1.33;;;21.00;44.20;;;;;;5072872;28;20044;-56
2022/01/05 10:04:03;;;;;;;3.40;1.05;;;21.00;44.20;;;;;;5072987;28;20452;-56
2022/01/05 10:06:31;;;;;;;6.38;1.33;;;21.00;44.10;;;;;;5072960;28;20040;-56
2022/01/05 10:08:57;;;;;;;3.60;1.27;;;21.00;44.10;;;;;;5072902;28;20361;-56
2022/01/05 10:11:23;;;;;;;2.78;1.13;;;21.00;44.10;;;;;;5073419;28;20123;-56
2022/01/05 10:13:52;;;;;;;4.18;1.25;;;21.00;44.00;;;;;;5072897;28;20078;-57
2022/01/05 10:16:17;;;;;;;3.20;1.02;;;21.00;44.00;;;;;;5055947;28;20045;-56
2022/01/05 10:18:44;;;;;;;3.05;1.05;;;21.00;43.90;;;;;;5072986;28;20157;-56
2022/01/05 10:21:14;;;;;;;5.15;1.33;;;21.00;43.90;;;;;;5071605;28;20481;-56
2022/01/05 10:23:51;;;;;;;5.90;1.50;;;21.00;43.90;;;;;;5072715;28;20032;-57
2022/01/05 10:26:26;;;;;;;3.35;1.10;;;21.00;43.90;;;;;;5073452;28;20123;-56
2022/01/05 10:29:04;;;;;;;3.35;1.08;;;21.00;44.00;;;;;;5073150;28;20055;-57
2022/01/05 10:31:40;;;;;;;5.72;1.10;;;21.00;44.10;;;;;;5073560;28;20040;-57
2022/01/05 10:34:13;;;;;;;6.90;1.55;;;21.00;44.10;;;;;;5075534;28;20115;-56
2022/01/05 10:37:00;;;;;;;5.55;1.30;;;21.10;44.10;;;;;;5077308;28;20464;-56
2022/01/05 10:39:31;;;;;;;3.33;1.40;;;21.10;44.10;;;;;;5077137;28;20313;-57
2022/01/05 10:42:08;;;;;;;4.78;1.17;;;21.10;44.20;;;;;;5075989;28;20519;-57
2022/01/05 10:44:33;;;;;;;7.53;1.77;;;21.10;44.30;;;;;;5076336;28;20131;-57
2022/01/05 10:47:00;;;;;;;5.78;1.67;;;21.10;44.50;;;;;;5076052;28;20102;-57
2022/01/05 10:49:36;;;;;;;4.47;1.65;;;21.10;44.50;;;;;;5076343;28;20051;-56
2022/01/05 10:52:23;;;;;;;4.60;1.48;;;21.10;44.80;;;;;;5076838;28;20036;-57
2022/01/05 10:54:50;;;;;;;3.03;1.10;;;21.10;45.00;;;;;;5069213;28;20368;-57
2022/01/05 10:57:17;;;;;;;4.43;1.40;;;21.10;45.10;;;;;;5076147;28;20056;-57
2022/01/05 10:59:45;;;;;;;3.63;1.10;;;21.10;45.30;;;;;;5076089;28;20055;-56
2022/01/05 11:02:32;;;;;;;4.72;1.25;;;21.10;45.30;;;;;;5075991;28;20071;-57
2022/01/05 11:05:08;;;;;;;5.97;1.77;;;21.10;45.50;;;;;;5074680;28;20361;-56
2022/01/05 11:07:37;;;;;;;3.53;1.30;;;21.20;45.60;;;;;;5075908;28;20051;-57
2022/01/05 11:10:06;;;;;;;5.65;1.52;;;21.20;45.70;;;;;;5076422;28;20040;-57
2022/01/05 11:12:40;;;;;;;3.90;1.08;;;21.20;46.70;;;;;;5075850;28;20156;-57
2022/01/05 11:15:31;;;;;;;6.03;1.52;;;21.10;46.00;;;;;;5075779;28;20052;-56
2022/01/05 11:18:15;;;;;;;4.13;1.35;;;21.20;46.50;;;;;;5075937;28;20073;-57
2022/01/05 11:21:01;;;;;;;6.35;1.55;;;21.20;46.70;;;;;;5075762;28;20150;-57
2022/01/05 11:23:28;;;;;;;7.88;1.50;;;21.20;46.70;;;;;;5076166;28;20044;-56
2022/01/05 11:25:56;;;;;;;7.97;1.83;;;21.20;46.80;;;;;;5075694;28;20052;-56
2022/01/05 11:28:24;;;;;;;4.13;1.60;;;21.20;46.80;;;;;;5075672;28;20479;-56
2022/01/05 11:30:52;;;;;;;5.18;1.30;;;21.20;46.90;;;;;;5075589;28;20037;-57
2022/01/05 11:33:19;;;;;;;5.82;1.98;;;21.30;46.90;;;;;;5072514;28;20032;-57
2022/01/05 11:35:45;;;;;;;7.30;2.22;;;21.30;46.90;;;;;;5075507;28;20468;-56
2022/01/05 11:38:12;;;;;;;5.30;1.50;;;21.30;46.90;;;;;;5076182;28;20044;-57
2022/01/05 11:40:45;;;;;;;6.68;1.55;;;21.30;46.80;;;;;;5075377;28;20546;-57
2022/01/05 11:43:26;;;;;;;9.65;1.88;;;21.30;46.70;;;;;;5072811;28;20419;-56
2022/01/05 11:45:52;;;;;;;6.10;1.85;;;21.30;46.90;;;;;;5075579;28;20125;-56
2022/01/05 11:48:22;;;;;;;5.95;1.52;;;21.30;47.10;;;;;;5075125;28;20040;-56
2022/01/05 11:50:59;;;;;;;8.57;1.80;;;21.30;47.00;;;;;;5075986;28;20043;-56
2022/01/05 11:53:44;;;;;;;3.50;1.42;;;21.30;46.90;;;;;;5075805;28;20317;-56
2022/01/05 11:56:14;;;;;;;5.40;1.92;;;21.30;46.80;;;;;;5075081;28;20237;-56
2022/01/05 11:58:58;;;;;;;5.75;1.40;;;21.30;46.80;;;;;;5075024;28;20379;-56
2022/01/05 12:01:33;;;;;;;5.20;1.67;;;21.30;46.60;;;;;;5075464;28;20044;-56
2022/01/05 12:04:01;;;;;;;5.10;1.60;;;21.30;46.60;;;;;;5074831;28;20115;-56
2022/01/05 12:06:55;;;;;;;3.80;1.35;;;21.30;46.40;;;;;;5074668;28;20108;-56
2022/01/05 12:09:27;;;;;;;6.90;1.58;;;21.40;46.30;;;;;;5073326;28;20095;-56
2022/01/05 12:11:54;;;;;;;5.80;2.03;;;21.30;46.20;;;;;;5075343;28;20036;-56
2022/01/05 12:14:19;;;;;;;6.72;1.60;;;21.40;46.20;;;;;;5074258;28;20375;-57
2022/01/05 12:17:06;;;;;;;5.57;1.77;;;21.30;46.10;;;;;;5074616;28;20037;-56
2022/01/05 12:19:45;;;;;;;3.28;1.20;;;21.40;45.90;;;;;;5075110;28;20131;-57
2022/01/05 12:22:20;;;;;;;5.45;1.30;;;21.40;45.90;;;;;;5074447;28;20472;-56
2022/01/05 12:25:09;;;;;;;4.93;1.92;;;21.40;45.80;;;;;;5074992;28;20044;-57
2022/01/05 12:27:50;;;;;;;5.97;1.60;;;21.40;45.70;;;;;;5074403;28;20084;-57
2022/01/05 12:30:16;;;;;;;6.55;1.80;;;21.40;45.60;;;;;;5074874;28;20499;-56
2022/01/05 12:32:43;;;;;;;4.50;1.73;;;21.40;45.50;;;;;;5074343;28;20072;-57
2022/01/05 12:35:19;;;;;;;9.43;2.22;;;21.40;45.40;;;;;;5074232;28;20493;-57
2022/01/05 12:37:53;;;;;;;4.25;1.55;;;21.30;45.20;;;;;;5074208;28;20127;-57
2022/01/05 12:40:46;;;;;;;6.05;1.80;;;21.40;45.00;;;;;;5074148;28;20480;-57
2022/01/05 12:43:14;;;;;;;5.88;1.70;;;21.40;45.00;;;;;;5074029;28;20087;-57
2022/01/05 12:45:50;;;;;;;5.15;1.60;;;21.40;44.90;;;;;;5073977;28;20040;-57
2022/01/05 12:48:31;;;;;;;4.30;1.60;;;21.40;44.70;;;;;;5073996;28;20127;-56
2022/01/05 12:51:18;;;;;;;3.97;1.63;;;21.40;44.60;;;;;;5074181;28;20048;-56
2022/01/05 12:54:06;;;;;;;4.53;1.48;;;21.40;44.60;;;;;;5073936;28;20048;-56
2022/01/05 12:56:44;;;;;;;4.50;1.40;;;21.30;44.40;;;;;;5072645;28;20086;-56